createdAt,value
2018-08-09T00:01:52.396Z,20.70
2018-08-09T00:04:21.639Z,20.70
2018-08-09T00:06:50.919Z,20.70
2018-08-09T00:09:21.026Z,20.60
2018-08-09T00:29:55.427Z,20.40
2018-08-09T00:32:24.671Z,20.50
2018-08-09T00:34:53.888Z,20.40
2018-08-09T00:37:24.080Z,20.40
2018-08-09T00:39:53.317Z,20.30
2018-08-09T00:42:22.549Z,20.30
2018-08-09T00:44:52.824Z,20.30
2018-08-09T00:47:22.111Z,20.30
2018-08-09T00:49:52.066Z,20.30
2018-08-09T00:52:23.082Z,20.30
2018-08-09T00:54:55.421Z,20.30
2018-08-09T00:59:53.443Z,20.40
2018-08-09T01:02:22.658Z,20.30
2018-08-09T01:04:51.930Z,20.30
2018-08-09T01:25:26.521Z,20.00
2018-08-09T01:27:56.382Z,20.00
2018-08-09T01:30:25.667Z,19.90
2018-08-09T01:32:56.268Z,20.00
2018-08-09T01:35:25.660Z,20.00
2018-08-09T01:37:54.957Z,20.00
2018-08-09T01:40:24.174Z,20.10
2018-08-09T02:00:59.168Z,19.80
2018-08-09T02:03:28.417Z,19.70
2018-08-09T02:05:57.742Z,19.50
2018-08-09T02:08:27.186Z,19.50
2018-08-09T02:10:56.957Z,19.40
2018-08-09T02:13:26.279Z,19.40
2018-08-09T02:15:55.518Z,19.40
2018-08-09T02:18:26.267Z,19.40
2018-08-09T02:20:55.498Z,19.30
2018-08-09T02:23:24.763Z,19.20
2018-08-09T02:25:54.145Z,19.30
2018-08-09T02:28:23.379Z,19.30
2018-08-09T02:30:54.264Z,19.40
2018-08-09T02:33:23.517Z,19.40
2018-08-09T02:35:53.171Z,19.40
2018-08-09T02:38:22.487Z,19.40
2018-08-09T02:40:51.717Z,19.40
2018-08-09T02:43:21.137Z,19.40
2018-08-09T02:45:50.530Z,19.40
2018-08-09T02:48:20.177Z,19.40
2018-08-09T02:50:50.181Z,19.50
2018-08-09T02:55:48.312Z,19.40
2018-08-09T02:58:17.593Z,19.40
2018-08-09T03:00:46.835Z,19.40
2018-08-09T03:03:16.178Z,19.40
2018-08-09T03:05:45.560Z,19.40
2018-08-09T03:08:14.869Z,19.40
2018-08-09T03:10:44.137Z,19.40
2018-08-09T03:13:14.922Z,19.40
2018-08-09T03:15:44.155Z,19.40
2018-08-09T03:18:13.422Z,19.40
2018-08-09T03:20:44.557Z,19.40
2018-08-09T03:41:17.949Z,19.20
2018-08-09T03:43:47.582Z,19.20
2018-08-09T03:46:16.818Z,19.10
2018-08-09T03:48:47.510Z,19.10
2018-08-09T04:09:21.298Z,18.80
2018-08-09T04:11:50.568Z,18.70
2018-08-09T04:14:19.856Z,18.80
2018-08-09T04:16:49.118Z,18.70
2018-08-09T04:19:18.390Z,18.80
2018-08-09T04:21:47.860Z,18.70
2018-08-09T04:24:17.138Z,18.70
2018-08-09T04:26:46.512Z,18.70
2018-08-09T04:29:15.703Z,18.70
2018-08-09T04:31:45.497Z,18.70
2018-08-09T04:34:14.803Z,18.70
2018-08-09T04:36:44.036Z,18.70
2018-08-09T04:39:13.370Z,18.80
2018-08-09T04:41:43.271Z,18.90
2018-08-09T04:44:12.668Z,18.80
2018-08-09T04:46:41.930Z,18.80
2018-08-09T04:49:11.396Z,18.80
2018-08-09T04:54:09.470Z,18.90
2018-08-09T04:56:38.699Z,18.90
2018-08-09T04:59:08.920Z,18.80
2018-08-09T05:01:38.223Z,18.90
2018-08-09T05:04:07.724Z,18.80
2018-08-09T05:06:37.098Z,18.90
2018-08-09T05:09:08.612Z,19.00
2018-08-09T05:11:38.034Z,19.00
2018-08-09T05:14:07.341Z,18.90
2018-08-09T05:16:36.954Z,18.90
2018-08-09T05:19:07.027Z,19.00
2018-08-09T05:21:36.322Z,19.10
2018-08-09T05:24:06.422Z,19.10
2018-08-09T05:26:35.750Z,19.20
2018-08-09T05:47:09.039Z,19.30
2018-08-09T05:49:38.910Z,19.40
2018-08-09T05:52:08.331Z,19.50
2018-08-09T05:54:37.629Z,19.60
2018-08-09T05:57:08.544Z,19.60
2018-08-09T05:59:37.821Z,19.70
2018-08-09T06:02:07.190Z,19.80
2018-08-09T06:04:37.353Z,19.90
2018-08-09T06:25:11.571Z,20.40
2018-08-09T06:27:40.837Z,20.40
2018-08-09T06:30:12.233Z,20.40
2018-08-09T06:32:42.134Z,20.40
2018-08-09T06:35:11.997Z,20.40
2018-08-09T06:55:45.105Z,20.10
2018-08-09T06:58:14.280Z,20.20
2018-08-09T07:00:43.569Z,20.20
2018-08-09T07:03:13.562Z,20.40
2018-08-09T07:23:47.537Z,21.30
2018-08-09T07:26:17.032Z,21.30
2018-08-09T07:28:46.415Z,21.30
2018-08-09T07:31:16.427Z,21.30
2018-08-09T07:33:45.889Z,21.30
2018-08-09T07:36:15.105Z,21.30
2018-08-09T07:38:44.510Z,21.30
2018-08-09T07:41:14.762Z,21.40
2018-08-09T07:43:44.075Z,21.50
2018-08-09T07:46:13.417Z,21.50
2018-08-09T07:48:42.721Z,21.50
2018-08-09T07:51:12.776Z,21.60
2018-08-09T07:53:42.456Z,21.70
2018-08-09T07:56:11.830Z,21.70
2018-08-09T07:58:41.580Z,21.80
2018-08-09T08:01:11.428Z,21.80
2018-08-09T08:03:40.748Z,21.80
2018-08-09T08:06:10.560Z,21.90
2018-08-09T08:08:39.870Z,21.90
2018-08-09T08:11:09.427Z,22.00
2018-08-09T08:13:38.722Z,22.10
2018-08-09T08:16:08.282Z,22.10
2018-08-09T08:18:37.520Z,22.30
2018-08-09T08:21:07.722Z,22.40
2018-08-09T08:23:37.033Z,22.40
2018-08-09T08:44:10.563Z,23.10
2018-08-09T08:46:39.834Z,23.10
2018-08-09T08:49:09.264Z,23.10
2018-08-09T08:51:38.558Z,23.20
2018-08-09T08:54:07.886Z,23.20
2018-08-09T08:56:39.238Z,23.20
2018-08-09T08:59:08.492Z,23.30
2018-08-09T09:01:37.765Z,23.40
2018-08-09T09:04:07.110Z,23.50
2018-08-09T09:06:36.370Z,23.50
2018-08-09T09:09:09.569Z,23.60
2018-08-09T09:11:38.743Z,23.70
2018-08-09T09:14:08.701Z,23.70
2018-08-09T09:16:38.133Z,23.80
2018-08-09T09:19:07.912Z,23.80
2018-08-09T09:21:37.341Z,23.90
2018-08-09T09:24:06.715Z,24.00
2018-08-09T09:44:41.270Z,24.80
2018-08-09T09:49:39.386Z,25.10
2018-08-09T09:52:08.641Z,25.20
2018-08-09T09:54:37.987Z,25.20
2018-08-09T10:15:12.562Z,25.90
2018-08-09T10:35:39.294Z,26.30
2018-08-09T10:38:09.533Z,26.30
2018-08-09T10:40:38.815Z,26.40
2018-08-09T11:01:13.045Z,27.20
2018-08-09T11:03:42.320Z,27.20
2018-08-09T11:24:16.323Z,27.30
2018-08-09T11:26:45.608Z,27.40
2018-08-09T11:47:20.285Z,28.40
2018-08-09T11:49:50.634Z,28.40
2018-08-09T11:52:19.913Z,28.40
2018-08-09T11:54:49.646Z,28.40
2018-08-09T11:57:19.151Z,28.40
2018-08-09T12:17:54.288Z,29.20
2018-08-09T12:38:29.139Z,29.60
2018-08-09T12:40:58.477Z,29.70
2018-08-09T12:43:28.976Z,29.80
2018-08-09T12:45:58.238Z,29.90
2018-08-09T13:06:25.527Z,29.60
2018-08-09T13:11:23.937Z,29.70
2018-08-09T13:13:53.227Z,29.70
2018-08-09T13:16:22.527Z,29.70
2018-08-09T13:18:52.032Z,29.70
2018-08-09T13:21:21.394Z,29.50
2018-08-09T13:41:55.056Z,30.10
2018-08-09T13:44:24.441Z,30.10
2018-08-09T13:46:55.080Z,30.10
2018-08-09T13:49:24.372Z,30.30
2018-08-09T13:51:54.060Z,30.30
2018-08-09T13:54:24.351Z,30.50
2018-08-09T13:56:53.585Z,30.70
2018-08-09T13:59:23.389Z,30.90
2018-08-09T14:01:53.362Z,30.90
2018-08-09T14:04:22.738Z,30.80
2018-08-09T14:07:21.689Z,30.80
2018-08-09T14:09:50.354Z,30.90
2018-08-09T14:12:19.802Z,31.30
2018-08-09T14:14:48.425Z,31.20
2018-08-09T14:17:17.764Z,31.10
2018-08-09T14:19:48.228Z,30.70
2018-08-09T14:22:16.891Z,30.80
2018-08-09T14:24:45.449Z,30.70
2018-08-09T14:27:14.474Z,30.40
2018-08-09T14:29:43.043Z,30.10
2018-08-09T14:32:11.655Z,29.70
2018-08-09T14:34:41.051Z,29.60
2018-08-09T14:37:09.669Z,29.70
2018-08-09T14:39:38.778Z,30.30
2018-08-09T14:42:07.295Z,30.90
2018-08-09T14:44:35.855Z,31.40
2018-08-09T14:47:05.107Z,31.80
2018-08-09T14:49:33.585Z,32.30
2018-08-09T14:52:02.929Z,31.80
2018-08-09T14:54:32.229Z,31.10
2018-08-09T14:57:01.559Z,30.10
2018-08-09T14:59:30.119Z,29.40
2018-08-09T15:01:58.588Z,28.90
2018-08-09T15:04:27.943Z,28.60
2018-08-09T15:06:56.539Z,28.40
2018-08-09T15:09:25.016Z,28.00
2018-08-09T15:11:54.281Z,27.80
2018-08-09T15:14:23.522Z,27.30
2018-08-09T15:16:52.113Z,27.10
2018-08-09T15:19:20.614Z,27.20
2018-08-09T15:21:49.177Z,26.80
2018-08-09T15:41:40.583Z,25.60
2018-08-09T15:44:09.624Z,25.30
2018-08-09T15:46:39.059Z,24.30
2018-08-09T16:06:28.819Z,22.30
2018-08-09T16:08:58.048Z,22.00
2018-08-09T16:11:27.472Z,21.90
2018-08-09T16:13:56.047Z,21.80
2018-08-09T16:16:26.543Z,21.70
2018-08-09T16:18:55.025Z,21.60
2018-08-09T16:21:23.580Z,21.70
2018-08-09T16:23:52.233Z,21.80
2018-08-09T16:26:21.617Z,21.80
2018-08-09T16:46:11.271Z,21.30
2018-08-09T16:48:39.776Z,21.10
2018-08-09T16:51:08.385Z,21.00
2018-08-09T16:53:36.924Z,21.00
2018-08-09T16:56:06.262Z,20.80
2018-08-09T16:58:34.903Z,20.80
2018-08-09T17:18:24.260Z,20.10
2018-08-09T17:38:15.524Z,20.00
2018-08-09T17:40:44.317Z,19.90
2018-08-09T17:43:12.816Z,19.80
2018-08-09T17:45:42.046Z,19.80
2018-08-09T17:48:10.729Z,19.70
2018-08-09T17:50:39.381Z,19.70
2018-08-09T17:53:09.425Z,19.70
2018-08-09T17:55:38.034Z,19.60
2018-08-09T17:58:06.801Z,19.60
2018-08-09T18:17:57.374Z,19.70
2018-08-09T18:20:29.970Z,19.50
2018-08-09T18:22:58.755Z,19.50
2018-08-09T18:25:28.674Z,19.40
2018-08-09T18:27:57.311Z,19.40
2018-08-09T18:47:47.868Z,19.50
2018-08-09T19:07:38.260Z,19.60
2018-08-09T19:10:10.600Z,19.60
2018-08-09T19:12:39.810Z,19.60
2018-08-09T19:15:09.929Z,19.50
2018-08-09T19:17:39.019Z,19.50
2018-08-09T19:20:25.523Z,19.50
2018-08-09T19:22:54.731Z,19.60
2018-08-09T19:25:23.500Z,19.60
2018-08-09T19:27:52.173Z,19.60
2018-08-09T19:30:22.361Z,19.60
2018-08-09T19:32:51.438Z,19.60
2018-08-09T19:35:20.966Z,19.60
2018-08-09T19:37:49.581Z,19.70
2018-08-09T19:40:20.512Z,19.70
2018-08-09T20:00:13.986Z,19.50
2018-08-09T20:02:42.874Z,19.50
2018-08-09T20:05:11.732Z,19.50
2018-08-09T20:07:40.696Z,19.60
2018-08-09T20:10:10.688Z,19.50
2018-08-09T20:12:39.955Z,19.60
2018-08-09T20:32:30.456Z,19.50
2018-08-09T20:34:58.932Z,19.40
2018-08-09T20:54:48.961Z,19.70
2018-08-09T20:57:17.440Z,19.70
2018-08-09T20:59:47.724Z,19.60
2018-08-09T21:02:16.341Z,19.40
2018-08-09T21:04:44.834Z,19.40
2018-08-09T21:07:13.362Z,19.40
2018-08-09T21:09:41.935Z,19.40
2018-08-09T21:29:31.872Z,19.20
2018-08-09T21:32:00.424Z,19.10
2018-08-09T21:34:28.924Z,19.10
2018-08-09T21:36:58.028Z,19.10
2018-08-09T21:39:26.670Z,19.10
2018-08-09T21:41:55.510Z,19.20
2018-08-09T21:44:24.159Z,19.30
2018-08-09T21:46:52.693Z,19.30
2018-08-09T21:49:21.813Z,19.30
2018-08-09T21:51:50.315Z,19.40
2018-08-09T21:54:20.181Z,19.40
2018-08-09T21:56:49.553Z,19.40
2018-08-09T21:59:18.775Z,19.40
2018-08-09T22:19:14.129Z,19.40
2018-08-09T22:21:48.725Z,19.30
2018-08-09T22:24:17.554Z,19.30
2018-08-09T22:26:46.077Z,19.30
2018-08-09T22:29:15.418Z,19.30
2018-08-09T22:31:44.071Z,19.20
2018-08-09T22:34:12.854Z,19.20
2018-08-09T22:36:41.309Z,19.20
2018-08-09T22:39:10.042Z,19.20
2018-08-09T22:41:38.642Z,19.20
2018-08-09T22:44:08.626Z,19.20
2018-08-09T22:46:37.164Z,19.30
2018-08-09T22:49:05.777Z,19.20
2018-08-09T22:51:34.346Z,19.20
2018-08-09T22:54:04.508Z,19.20
2018-08-09T22:56:33.674Z,19.20
2018-08-09T22:59:02.184Z,19.20
2018-08-09T23:01:30.758Z,19.20
2018-08-09T23:21:20.727Z,19.20
2018-08-09T23:23:49.938Z,19.30
2018-08-09T23:26:19.090Z,19.40
2018-08-09T23:28:47.654Z,19.40
2018-08-09T23:31:16.108Z,19.40
2018-08-09T23:33:44.663Z,19.50
2018-08-09T23:36:13.229Z,19.60
2018-08-09T23:38:41.900Z,19.60
2018-08-09T23:41:10.385Z,19.60
2018-08-09T23:43:38.928Z,19.70
2018-08-09T23:46:07.446Z,19.70
2018-08-09T23:48:36.011Z,19.70
2018-08-09T23:51:04.571Z,19.70
2018-08-09T23:53:34.360Z,19.60
2018-08-09T23:56:02.845Z,19.50
2018-08-09T23:58:31.309Z,19.40
